Time;durP1;ratioP1;P1;durP2;ratioP2;P2;SDS_P1;SDS_P2;PMS_P1;PMS_P2;Temp;Humidity;BMP_temperature;BMP_pressure;BME280_temperature;BME280_humidity;BME280_pressure;Samples;Min_cycle;Max_cycle;Signal;HPM_P1;HPM_P2
2022/10/11 00:00:18;;;;;;;36.33;7.32;;;;;;;;;;4965687;28;20037;-72
2022/10/11 00:02:44;;;;;;;34.80;8.10;;;;;;;;;;4964703;28;20069;-72
2022/10/11 00:05:10;;;;;;;33.45;7.70;;;;;;;;;;4975090;28;20066;-72
2022/10/11 00:07:37;;;;;;;30.00;7.47;;;;;;;;;;4965212;28;20037;-71
2022/10/11 00:10:04;;;;;;;30.80;7.60;;;;;;;;;;4964711;28;20031;-71
2022/10/11 00:12:30;;;;;;;36.33;8.02;;;;;;;;;;4964188;28;20465;-71
2022/10/11 00:14:56;;;;;;;39.88;8.98;;;;;;;;;;4966117;28;20484;-71
2022/10/11 00:17:22;;;;;;;26.40;7.93;;;;;;;;;;4958972;28;20125;-71
2022/10/11 00:19:48;;;;;;;32.35;7.60;;;;;;;;;;4964647;28;20027;-71
2022/10/11 00:22:14;;;;;;;22.58;7.18;;;;;;;;;;4967281;28;20042;-71
2022/10/11 00:24:40;;;;;;;25.60;7.78;;;;;;;;;;4967111;28;20042;-71
2022/10/11 00:27:07;;;;;;;31.70;7.90;;;;;;;;;;4966053;28;20525;-71
2022/10/11 00:29:33;;;;;;;36.67;9.15;;;;;;;;;;4968899;28;20488;-71
2022/10/11 00:31:59;;;;;;;20.88;8.32;;;;;;;;;;4965620;28;20035;-72
2022/10/11 00:34:25;;;;;;;22.10;7.00;;;;;;;;;;4965759;28;20027;-71
2022/10/11 00:36:51;;;;;;;18.00;6.20;;;;;;;;;;4963641;28;20365;-71
2022/10/11 00:39:17;;;;;;;11.00;4.80;;;;;;;;;;4963505;28;20035;-72
2022/10/11 00:41:43;;;;;;;12.55;4.38;;;;;;;;;;4966782;28;20030;-71
2022/10/11 00:44:10;;;;;;;21.92;5.07;;;;;;;;;;4965540;28;20485;-71
2022/10/11 00:46:36;;;;;;;9.77;5.22;;;;;;;;;;4964538;28;20239;-72
2022/10/11 00:49:05;;;;;;;11.93;4.43;;;;;;;;;;4962755;28;20154;-71
2022/10/11 00:51:31;;;;;;;9.32;4.85;;;;;;;;;;4980966;28;20469;-72
2022/10/11 00:53:58;;;;;;;9.85;4.40;;;;;;;;;;4961842;28;20034;-72
2022/10/11 00:56:27;;;;;;;6.20;4.47;;;;;;;;;;4965701;28;20027;-72
2022/10/11 00:58:53;;;;;;;10.02;4.40;;;;;;;;;;4964673;28;20057;-72
2022/10/11 01:01:19;;;;;;;8.05;3.70;;;;;;;;;;4966871;28;20046;-70
2022/10/11 01:03:47;;;;;;;7.90;4.40;;;;;;;;;;4979528;28;20070;-72
2022/10/11 01:06:13;;;;;;;10.45;4.28;;;;;;;;;;4971488;28;20023;-72
2022/10/11 01:08:39;;;;;;;9.77;4.18;;;;;;;;;;4968811;28;21046;-72
2022/10/11 01:11:05;;;;;;;16.95;4.28;;;;;;;;;;4969403;28;20019;-72
2022/10/11 01:13:44;;;;;;;19.98;5.93;;;;;;;;;;4969597;28;20161;-72
2022/10/11 01:16:28;;;;;;;16.83;6.80;;;;;;;;;;4964863;28;20038;-71
2022/10/11 01:18:57;;;;;;;22.58;6.70;;;;;;;;;;4967747;28;20080;-71
2022/10/11 01:21:23;;;;;;;25.17;8.15;;;;;;;;;;4968270;28;20436;-71
2022/10/11 01:24:01;;;;;;;30.77;10.25;;;;;;;;;;4967400;28;20039;-71
2022/10/11 01:26:46;;;;;;;32.58;9.73;;;;;;;;;;4967366;28;20077;-71
2022/10/11 01:29:37;;;;;;;26.05;7.93;;;;;;;;;;4983564;28;20050;-71
2022/10/11 01:32:09;;;;;;;23.08;8.60;;;;;;;;;;4965547;28;20122;-72
2022/10/11 01:34:40;;;;;;;34.10;9.52;;;;;;;;;;4968808;28;20054;-71
2022/10/11 01:37:27;;;;;;;31.08;9.77;;;;;;;;;;4969061;28;20043;-72
2022/10/11 01:40:05;;;;;;;25.42;9.45;;;;;;;;;;4966374;28;20026;-71
2022/10/11 01:42:31;;;;;;;32.63;9.32;;;;;;;;;;4965297;28;20481;-72
2022/10/11 01:44:58;;;;;;;28.05;9.40;;;;;;;;;;4969127;28;20043;-72
2022/10/11 01:47:24;;;;;;;36.10;10.60;;;;;;;;;;4970960;28;20023;-71
2022/10/11 01:49:58;;;;;;;25.45;10.35;;;;;;;;;;5000257;28;20455;-72
2022/10/11 01:52:26;;;;;;;27.77;10.43;;;;;;;;;;4966694;28;20038;-72
2022/10/11 01:54:59;;;;;;;31.35;10.52;;;;;;;;;;4970321;28;20445;-72
2022/10/11 01:57:42;;;;;;;31.52;9.82;;;;;;;;;;4964681;28;20106;-71
2022/10/11 02:00:22;;;;;;;31.95;10.38;;;;;;;;;;4969252;28;20061;-71
2022/10/11 02:03:06;;;;;;;37.40;12.38;;;;;;;;;;4966851;28;20411;-71
2022/10/11 02:05:32;;;;;;;27.13;9.75;;;;;;;;;;4967762;28;20118;-71
2022/10/11 02:08:13;;;;;;;28.13;9.88;;;;;;;;;;4967511;28;20113;-73
2022/10/11 02:10:42;;;;;;;28.67;9.98;;;;;;;;;;4965467;28;20030;-73
2022/10/11 02:13:11;;;;;;;38.03;9.80;;;;;;;;;;4967551;28;21189;-71
2022/10/11 02:15:39;;;;;;;23.30;9.82;;;;;;;;;;4983118;28;20477;-71
2022/10/11 02:18:09;;;;;;;30.75;10.60;;;;;;;;;;4964691;28;20026;-71
2022/10/11 02:20:37;;;;;;;26.98;9.13;;;;;;;;;;4967237;28;20062;-72
2022/10/11 02:23:09;;;;;;;25.90;9.25;;;;;;;;;;4962199;28;20023;-73
2022/10/11 02:25:36;;;;;;;35.40;9.57;;;;;;;;;;4969620;28;20571;-73
2022/10/11 02:28:03;;;;;;;40.15;9.27;;;;;;;;;;4967198;28;20089;-73
2022/10/11 02:30:30;;;;;;;30.13;9.43;;;;;;;;;;4967533;28;20559;-73
2022/10/11 02:32:57;;;;;;;35.97;10.07;;;;;;;;;;4970948;28;20058;-73
2022/10/11 02:35:26;;;;;;;25.40;7.13;;;;;;;;;;4971974;28;20041;-73
2022/10/11 02:38:05;;;;;;;17.90;5.85;;;;;;;;;;4967363;28;20035;-72
2022/10/11 02:40:37;;;;;;;22.17;6.72;;;;;;;;;;4966871;28;20053;-72
2022/10/11 02:43:22;;;;;;;21.33;7.00;;;;;;;;;;4965934;28;20157;-73
2022/10/11 02:46:02;;;;;;;24.23;6.72;;;;;;;;;;4965548;28;20090;-72
2022/10/11 02:48:28;;;;;;;27.58;7.25;;;;;;;;;;4969207;28;20097;-72
2022/10/11 02:50:55;;;;;;;35.20;8.73;;;;;;;;;;4965739;28;20065;-73
2022/10/11 02:53:22;;;;;;;43.13;11.38;;;;;;;;;;4966271;28;20038;-75
2022/10/11 02:55:49;;;;;;;42.65;13.45;;;;;;;;;;4968155;28;20035;-73
2022/10/11 02:58:15;;;;;;;30.10;11.32;;;;;;;;;;4965001;28;20034;-73
2022/10/11 03:00:41;;;;;;;31.17;10.70;;;;;;;;;;4973846;28;20059;-73
2022/10/11 03:03:07;;;;;;;26.75;11.48;;;;;;;;;;4962807;28;20160;-72
2022/10/11 03:05:39;;;;;;;44.78;13.75;;;;;;;;;;4968625;28;20410;-73
2022/10/11 03:08:05;;;;;;;51.95;14.23;;;;;;;;;;4968393;28;20027;-72
2022/10/11 03:10:32;;;;;;;40.63;14.82;;;;;;;;;;4967899;28;20380;-73
2022/10/11 03:12:58;;;;;;;44.80;14.55;;;;;;;;;;4966553;28;20027;-73
2022/10/11 03:15:24;;;;;;;39.08;13.93;;;;;;;;;;4964283;28;20107;-73
2022/10/11 03:17:50;;;;;;;47.50;14.98;;;;;;;;;;4967618;28;20031;-73
2022/10/11 03:20:16;;;;;;;33.70;13.38;;;;;;;;;;4962860;28;20038;-73
2022/10/11 03:22:42;;;;;;;41.92;13.82;;;;;;;;;;4965103;28;20125;-73
2022/10/11 03:25:09;;;;;;;41.65;14.10;;;;;;;;;;4969050;28;20038;-73
2022/10/11 03:27:35;;;;;;;37.67;14.90;;;;;;;;;;4964365;28;20118;-73
2022/10/11 03:30:01;;;;;;;33.67;13.65;;;;;;;;;;4969816;28;20477;-73
2022/10/11 03:32:27;;;;;;;39.70;13.48;;;;;;;;;;4969136;28;20132;-73
2022/10/11 03:34:53;;;;;;;34.05;12.95;;;;;;;;;;4963045;28;20028;-73
2022/10/11 03:37:19;;;;;;;44.08;13.10;;;;;;;;;;4964446;28;20053;-74
2022/10/11 03:39:45;;;;;;;35.85;13.80;;;;;;;;;;4966010;28;20122;-73
2022/10/11 03:42:12;;;;;;;34.70;14.32;;;;;;;;;;4965994;28;20606;-73
2022/10/11 03:44:38;;;;;;;49.00;15.45;;;;;;;;;;4966603;28;20042;-72
2022/10/11 03:47:04;;;;;;;44.92;14.88;;;;;;;;;;4967723;28;20045;-72
2022/10/11 03:49:30;;;;;;;42.80;13.95;;;;;;;;;;4966034;28;20031;-72
2022/10/11 03:51:56;;;;;;;35.75;14.25;;;;;;;;;;4966493;28;20103;-73
2022/10/11 03:54:22;;;;;;;37.85;15.32;;;;;;;;;;4966328;28;20331;-73
2022/10/11 03:56:48;;;;;;;39.30;15.27;;;;;;;;;;4965331;28;20039;-72
2022/10/11 03:59:14;;;;;;;43.65;16.33;;;;;;;;;;4967122;28;20039;-73
2022/10/11 04:01:40;;;;;;;47.35;16.90;;;;;;;;;;4966312;28;20051;-73
2022/10/11 04:04:06;;;;;;;38.03;15.20;;;;;;;;;;4963759;28;20150;-72
2022/10/11 04:06:32;;;;;;;41.83;16.55;;;;;;;;;;4966203;28;21281;-73
2022/10/11 04:08:58;;;;;;;43.88;16.02;;;;;;;;;;4964531;28;20019;-73
2022/10/11 04:11:24;;;;;;;43.85;16.27;;;;;;;;;;4965068;28;20035;-73
2022/10/11 04:13:50;;;;;;;41.42;17.25;;;;;;;;;;4964202;28;20117;-72
2022/10/11 04:16:16;;;;;;;40.60;16.75;;;;;;;;;;4966338;28;20035;-71
2022/10/11 04:18:42;;;;;;;45.92;16.70;;;;;;;;;;4966447;28;20559;-72
2022/10/11 04:21:09;;;;;;;48.05;16.80;;;;;;;;;;4966530;28;20045;-72
2022/10/11 04:23:34;;;;;;;42.10;16.48;;;;;;;;;;4966172;28;20023;-72
2022/10/11 04:26:04;;;;;;;47.15;16.05;;;;;;;;;;4964588;28;20057;-72
2022/10/11 04:28:30;;;;;;;34.28;15.35;;;;;;;;;;4966629;28;20177;-71
2022/10/11 04:30:56;;;;;;;37.80;16.60;;;;;;;;;;4965958;28;20035;-72
2022/10/11 04:33:22;;;;;;;48.13;17.27;;;;;;;;;;4963422;28;20096;-71
2022/10/11 04:35:48;;;;;;;48.45;16.48;;;;;;;;;;4969206;28;20031;-73
2022/10/11 04:38:14;;;;;;;44.75;16.17;;;;;;;;;;4983212;28;20096;-72
2022/10/11 04:40:40;;;;;;;33.72;13.52;;;;;;;;;;4975042;28;20027;-73
2022/10/11 04:43:06;;;;;;;28.40;11.75;;;;;;;;;;4967869;28;20042;-73
2022/10/11 04:45:32;;;;;;;27.60;10.90;;;;;;;;;;4971027;28;20172;-73
2022/10/11 04:47:58;;;;;;;25.25;9.52;;;;;;;;;;4968848;28;20034;-73
2022/10/11 04:50:24;;;;;;;24.27;10.63;;;;;;;;;;4970495;28;20046;-72
2022/10/11 04:52:50;;;;;;;21.83;10.70;;;;;;;;;;4967583;28;20023;-72
2022/10/11 04:55:16;;;;;;;24.77;11.27;;;;;;;;;;4967741;28;20031;-72
2022/10/11 04:57:42;;;;;;;35.20;13.95;;;;;;;;;;4967905;28;20043;-74
2022/10/11 05:00:09;;;;;;;34.97;14.65;;;;;;;;;;4968693;28;20041;-74
2022/10/11 05:02:35;;;;;;;40.85;17.02;;;;;;;;;;4967896;28;20034;-74
2022/10/11 05:05:01;;;;;;;47.50;18.15;;;;;;;;;;4969465;28;20061;-74
2022/10/11 05:07:27;;;;;;;43.92;17.90;;;;;;;;;;4970088;28;20388;-74
2022/10/11 05:09:53;;;;;;;47.60;19.00;;;;;;;;;;4964339;28;20034;-74
2022/10/11 05:12:19;;;;;;;47.47;19.02;;;;;;;;;;4968403;28;20035;-74
2022/10/11 05:14:45;;;;;;;42.42;19.08;;;;;;;;;;4968893;28;20057;-75
2022/10/11 05:17:11;;;;;;;48.33;20.52;;;;;;;;;;4971043;28;20314;-75
2022/10/11 05:19:37;;;;;;;50.90;19.73;;;;;;;;;;4967245;28;20085;-75
2022/10/11 05:22:03;;;;;;;44.97;18.58;;;;;;;;;;4965692;28;20035;-75
2022/10/11 05:24:29;;;;;;;44.42;17.42;;;;;;;;;;4968173;28;20520;-74
2022/10/11 05:26:55;;;;;;;49.13;18.80;;;;;;;;;;4970168;28;20034;-74
2022/10/11 05:29:21;;;;;;;64.32;17.83;;;;;;;;;;4967086;28;20023;-74
2022/10/11 05:31:47;;;;;;;47.08;17.83;;;;;;;;;;4963610;28;20484;-73
2022/10/11 05:34:13;;;;;;;47.00;17.52;;;;;;;;;;4970133;28;20480;-75
2022/10/11 05:36:39;;;;;;;50.47;18.27;;;;;;;;;;4968642;28;20133;-75
2022/10/11 05:39:05;;;;;;;53.72;16.35;;;;;;;;;;4974284;28;20029;-75
2022/10/11 05:41:31;;;;;;;47.25;16.70;;;;;;;;;;4988597;28;20058;-75
2022/10/11 05:43:57;;;;;;;42.55;17.35;;;;;;;;;;4965726;28;20030;-75
2022/10/11 05:46:23;;;;;;;49.45;17.58;;;;;;;;;;4966994;28;20146;-75
2022/10/11 05:48:49;;;;;;;48.83;19.67;;;;;;;;;;4970265;28;20114;-75
2022/10/11 05:51:15;;;;;;;46.17;15.77;;;;;;;;;;4967500;28;20507;-74
2022/10/11 05:53:41;;;;;;;51.28;18.00;;;;;;;;;;4969398;28;20109;-74
2022/10/11 05:56:16;;;;;;;43.42;17.05;;;;;;;;;;4969618;28;20033;-74
2022/10/11 05:58:42;;;;;;;49.75;17.67;;;;;;;;;;4982559;28;20030;-75
2022/10/11 06:01:15;;;;;;;30.15;14.48;;;;;;;;;;4967651;28;20138;-75
2022/10/11 06:03:41;;;;;;;50.72;20.33;;;;;;;;;;4967665;28;20035;-75
2022/10/11 06:06:07;;;;;;;38.50;17.17;;;;;;;;;;4972743;28;20031;-75
2022/10/11 06:08:33;;;;;;;34.97;15.38;;;;;;;;;;4968703;28;20497;-75
2022/10/11 06:11:09;;;;;;;40.33;15.77;;;;;;;;;;4971141;28;20022;-75
2022/10/11 06:13:35;;;;;;;50.33;16.02;;;;;;;;;;4964882;28;20027;-75
2022/10/11 06:16:03;;;;;;;49.65;16.33;;;;;;;;;;4965665;28;20041;-78
2022/10/11 06:18:30;;;;;;;43.28;15.48;;;;;;;;;;4972836;28;20034;-75
2022/10/11 06:20:57;;;;;;;41.85;15.27;;;;;;;;;;4984958;28;20073;-75
2022/10/11 06:23:42;;;;;;;51.13;17.27;;;;;;;;;;4972477;28;20038;-75
2022/10/11 06:26:08;;;;;;;43.35;17.02;;;;;;;;;;4971832;28;20026;-75
2022/10/11 06:28:35;;;;;;;36.28;16.95;;;;;;;;;;4970704;28;20031;-75
2022/10/11 06:31:03;;;;;;;58.83;20.10;;;;;;;;;;4972334;28;20037;-75
2022/10/11 06:33:29;;;;;;;43.45;18.52;;;;;;;;;;4971742;28;20063;-75
2022/10/11 06:35:58;;;;;;;46.92;18.95;;;;;;;;;;4983802;28;20570;-75
2022/10/11 06:38:25;;;;;;;54.08;18.35;;;;;;;;;;4976928;28;20035;-77
2022/10/11 06:40:51;;;;;;;55.55;19.55;;;;;;;;;;4971669;28;20086;-75
2022/10/11 06:43:17;;;;;;;43.10;17.30;;;;;;;;;;4975830;28;20027;-75
2022/10/11 06:45:43;;;;;;;54.15;18.30;;;;;;;;;;4967330;28;20109;-74
2022/10/11 06:48:09;;;;;;;35.40;16.02;;;;;;;;;;4963462;28;20082;-74
2022/10/11 06:50:36;;;;;;;43.08;14.10;;;;;;;;;;4966579;28;20121;-74
2022/10/11 06:53:02;;;;;;;36.78;16.20;;;;;;;;;;4968639;28;20038;-73
2022/10/11 06:55:28;;;;;;;49.65;16.27;;;;;;;;;;4967732;28;20027;-73
2022/10/11 06:57:54;;;;;;;43.20;17.70;;;;;;;;;;4971847;28;20061;-73
2022/10/11 07:00:20;;;;;;;41.40;16.63;;;;;;;;;;4965278;28;20031;-73
2022/10/11 07:02:48;;;;;;;46.83;16.10;;;;;;;;;;4965195;28;20038;-74
2022/10/11 07:05:14;;;;;;;46.72;17.30;;;;;;;;;;4970370;28;20031;-74
2022/10/11 07:07:40;;;;;;;52.92;18.80;;;;;;;;;;4967307;28;20051;-73
2022/10/11 07:10:06;;;;;;;36.72;16.23;;;;;;;;;;4966081;28;20023;-74
2022/10/11 07:12:32;;;;;;;42.42;18.33;;;;;;;;;;4946780;28;20138;-74
2022/10/11 07:14:58;;;;;;;45.00;17.17;;;;;;;;;;4958618;28;20042;-74
2022/10/11 07:17:25;;;;;;;36.92;16.50;;;;;;;;;;4960407;28;20031;-74
2022/10/11 07:19:51;;;;;;;39.90;16.05;;;;;;;;;;4967637;28;20035;-74
2022/10/11 07:22:17;;;;;;;33.72;13.60;;;;;;;;;;4979808;28;20053;-74
2022/10/11 07:24:43;;;;;;;36.35;14.50;;;;;;;;;;4967824;28;20473;-73
2022/10/11 07:27:09;;;;;;;36.75;12.68;;;;;;;;;;4958367;28;20038;-74
2022/10/11 07:29:35;;;;;;;35.58;13.48;;;;;;;;;;4965455;28;20357;-74
2022/10/11 07:32:01;;;;;;;43.88;13.15;;;;;;;;;;4960916;28;20031;-74
2022/10/11 07:34:27;;;;;;;33.83;12.70;;;;;;;;;;4972445;28;20124;-74
2022/10/11 07:36:53;;;;;;;43.08;14.50;;;;;;;;;;4975929;28;20093;-74
2022/10/11 07:39:19;;;;;;;38.55;13.25;;;;;;;;;;4955460;28;20030;-73
2022/10/11 07:41:45;;;;;;;33.17;12.88;;;;;;;;;;4957659;28;20098;-74
2022/10/11 07:44:11;;;;;;;39.05;13.45;;;;;;;;;;4962098;28;20035;-74
2022/10/11 07:46:40;;;;;;;39.53;13.18;;;;;;;;;;4975288;28;20492;-73
2022/10/11 07:49:06;;;;;;;45.03;13.85;;;;;;;;;;4959835;28;20038;-73
2022/10/11 07:51:32;;;;;;;35.08;12.73;;;;;;;;;;4955635;28;20030;-74
2022/10/11 07:53:58;;;;;;;31.50;13.45;;;;;;;;;;4949037;28;20038;-74
2022/10/11 07:56:28;;;;;;;38.53;13.63;;;;;;;;;;4978182;28;20054;-74
2022/10/11 07:58:55;;;;;;;32.72;13.10;;;;;;;;;;4966031;28;20313;-74
2022/10/11 08:01:22;;;;;;;34.63;13.77;;;;;;;;;;4966466;28;20038;-73
2022/10/11 08:03:48;;;;;;;29.27;13.60;;;;;;;;;;4974858;28;20042;-74
2022/10/11 08:06:15;;;;;;;35.20;12.88;;;;;;;;;;4967462;28;20038;-73
2022/10/11 08:08:42;;;;;;;31.85;12.35;;;;;;;;;;4964238;28;20030;-74
2022/10/11 08:11:08;;;;;;;37.20;12.93;;;;;;;;;;4968477;28;20027;-74
2022/10/11 08:13:34;;;;;;;30.90;13.45;;;;;;;;;;4971737;28;20038;-74
2022/10/11 08:16:00;;;;;;;32.88;11.77;;;;;;;;;;4969723;28;20190;-73
2022/10/11 08:18:26;;;;;;;31.15;10.57;;;;;;;;;;4975307;28;20532;-74
2022/10/11 08:20:52;;;;;;;23.65;9.52;;;;;;;;;;4969221;28;20510;-74
2022/10/11 08:23:19;;;;;;;22.08;8.70;;;;;;;;;;4975872;28;20026;-73
2022/10/11 08:25:46;;;;;;;29.63;9.25;;;;;;;;;;4990063;28;20045;-74
2022/10/11 08:28:16;;;;;;;34.22;7.20;;;;;;;;;;4976135;28;20030;-74
2022/10/11 08:30:52;;;;;;;26.73;7.50;;;;;;;;;;4969790;28;20166;-73
2022/10/11 08:33:19;;;;;;;19.55;6.53;;;;;;;;;;4955336;28;20474;-74
2022/10/11 08:35:45;;;;;;;25.52;6.80;;;;;;;;;;4981749;28;20039;-74
2022/10/11 08:38:11;;;;;;;20.70;5.95;;;;;;;;;;4977298;28;20161;-73
2022/10/11 08:40:37;;;;;;;18.45;5.03;;;;;;;;;;4982657;28;20365;-73
2022/10/11 08:43:05;;;;;;;22.60;4.97;;;;;;;;;;4971400;28;20467;-73
2022/10/11 08:45:34;;;;;;;18.90;5.47;;;;;;;;;;4972058;28;20058;-73
2022/10/11 08:48:03;;;;;;;17.17;5.20;;;;;;;;;;4980568;28;20396;-73
2022/10/11 08:50:29;;;;;;;26.73;5.03;;;;;;;;;;4983623;28;20027;-73
2022/10/11 08:52:59;;;;;;;23.67;5.32;;;;;;;;;;4982605;28;20042;-73
2022/10/11 08:55:28;;;;;;;31.70;5.38;;;;;;;;;;4984724;28;20092;-72
2022/10/11 08:57:55;;;;;;;24.77;4.75;;;;;;;;;;4970508;28;20484;-72
2022/10/11 09:00:21;;;;;;;28.98;5.07;;;;;;;;;;4968916;28;20122;-72
2022/10/11 09:03:10;;;;;;;26.27;4.93;;;;;;;;;;4974030;28;20081;-74
2022/10/11 09:05:57;;;;;;;12.15;3.72;;;;;;;;;;4980483;28;20039;-73
2022/10/11 09:08:32;;;;;;;16.20;3.70;;;;;;;;;;4967521;28;20117;-73
2022/10/11 09:11:05;;;;;;;17.98;3.85;;;;;;;;;;4970017;28;20237;-73
2022/10/11 09:13:51;;;;;;;19.13;3.47;;;;;;;;;;4975709;28;20022;-74
2022/10/11 09:16:36;;;;;;;19.67;3.63;;;;;;;;;;4967634;28;20030;-73
2022/10/11 09:19:02;;;;;;;23.23;4.65;;;;;;;;;;4977646;28;20546;-73
2022/10/11 09:21:36;;;;;;;21.85;3.60;;;;;;;;;;4971343;28;20042;-73
2022/10/11 09:24:11;;;;;;;23.05;3.53;;;;;;;;;;4970193;28;20027;-73
2022/10/11 09:26:42;;;;;;;19.65;4.07;;;;;;;;;;4970893;28;20481;-73
2022/10/11 09:29:12;;;;;;;16.15;3.08;;;;;;;;;;4966715;28;20031;-73
2022/10/11 09:31:38;;;;;;;21.97;4.17;;;;;;;;;;4982883;28;20038;-73
2022/10/11 09:34:11;;;;;;;20.98;3.38;;;;;;;;;;4967425;28;20031;-73
2022/10/11 09:36:40;;;;;;;15.05;2.90;;;;;;;;;;4964677;28;20043;-73
2022/10/11 09:39:09;;;;;;;15.75;3.10;;;;;;;;;;4968727;28;20074;-74
2022/10/11 09:41:38;;;;;;;18.10;3.40;;;;;;;;;;4971389;28;20096;-73
2022/10/11 09:44:06;;;;;;;16.60;3.53;;;;;;;;;;4968065;28;20061;-73
2022/10/11 09:46:32;;;;;;;20.63;3.83;;;;;;;;;;4968967;28;21599;-73
2022/10/11 09:49:00;;;;;;;17.65;3.28;;;;;;;;;;4968449;28;20053;-73
2022/10/11 09:51:27;;;;;;;14.65;3.38;;;;;;;;;;4967574;28;20039;-73
2022/10/11 09:53:57;;;;;;;9.40;2.40;;;;;;;;;;4967556;28;20027;-73
2022/10/11 09:56:24;;;;;;;21.50;4.10;;;;;;;;;;4964207;28;20031;-72
2022/10/11 09:59:06;;;;;;;18.48;3.25;;;;;;;;;;4970247;28;20034;-74
2022/10/11 10:01:32;;;;;;;18.10;3.20;;;;;;;;;;4981610;28;20511;-73
2022/10/11 10:04:09;;;;;;;11.23;2.70;;;;;;;;;;4972882;28;20480;-73
2022/10/11 10:06:35;;;;;;;13.45;3.15;;;;;;;;;;4975014;28;20121;-73
2022/10/11 10:09:19;;;;;;;15.40;2.97;;;;;;;;;;4986096;28;20030;-73
2022/10/11 10:11:45;;;;;;;15.48;2.90;;;;;;;;;;4983451;28;20093;-73
2022/10/11 10:14:20;;;;;;;16.67;3.35;;;;;;;;;;4985822;28;20109;-73
2022/10/11 10:16:46;;;;;;;13.55;2.70;;;;;;;;;;4972033;28;20030;-73
2022/10/11 10:19:24;;;;;;;13.68;3.50;;;;;;;;;;4975247;28;20050;-75
2022/10/11 10:21:51;;;;;;;14.70;3.10;;;;;;;;;;4971734;28;20491;-73
2022/10/11 10:24:25;;;;;;;22.58;2.95;;;;;;;;;;4970471;28;20026;-73
2022/10/11 10:27:11;;;;;;;16.75;2.80;;;;;;;;;;4975408;28;20038;-73
2022/10/11 10:29:40;;;;;;;14.20;2.67;;;;;;;;;;4972406;28;20041;-73
2022/10/11 10:32:13;;;;;;;16.98;3.30;;;;;;;;;;4972730;28;20031;-73
2022/10/11 10:34:44;;;;;;;17.20;2.85;;;;;;;;;;4979687;28;20106;-73
2022/10/11 10:37:22;;;;;;;15.18;3.38;;;;;;;;;;4971452;28;20190;-73
2022/10/11 10:39:51;;;;;;;15.05;3.05;;;;;;;;;;4969105;28;20086;-73
2022/10/11 10:42:18;;;;;;;14.00;2.80;;;;;;;;;;4967672;28;20495;-73
2022/10/11 10:44:48;;;;;;;10.70;2.28;;;;;;;;;;4970609;28;20493;-72
2022/10/11 10:47:14;;;;;;;11.95;2.08;;;;;;;;;;4974997;28;20078;-73
2022/10/11 10:49:46;;;;;;;18.13;2.83;;;;;;;;;;4982029;28;20026;-72
2022/10/11 10:52:31;;;;;;;15.88;2.30;;;;;;;;;;4985890;28;20443;-72
2022/10/11 10:55:00;;;;;;;19.25;3.42;;;;;;;;;;4973858;28;20424;-72
2022/10/11 10:57:36;;;;;;;14.32;2.38;;;;;;;;;;4970253;28;20031;-72
2022/10/11 11:00:21;;;;;;;12.43;2.38;;;;;;;;;;4971120;28;20104;-73
2022/10/11 11:02:53;;;;;;;16.10;2.65;;;;;;;;;;4971483;28;20105;-72
2022/10/11 11:05:26;;;;;;;18.63;3.08;;;;;;;;;;4970910;28;20496;-72
2022/10/11 11:08:07;;;;;;;16.38;2.30;;;;;;;;;;4958660;28;20101;-72
2022/10/11 11:10:33;;;;;;;;;;;;;;;;;;4968533;28;20046;-74
2022/10/11 11:12:59;;;;;;;17.05;2.90;;;;;;;;;;4971460;28;19910;-72
2022/10/11 11:15:37;;;;;;;13.02;2.25;;;;;;;;;;4974400;28;20086;-72
2022/10/11 11:18:03;;;;;;;17.20;3.03;;;;;;;;;;4972531;28;20037;-72
2022/10/11 11:20:32;;;;;;;20.20;3.00;;;;;;;;;;4971502;28;20030;-72
2022/10/11 11:23:27;;;;;;;18.38;2.88;;;;;;;;;;4970297;28;20122;-72
2022/10/11 11:26:01;;;;;;;13.10;2.45;;;;;;;;;;4972571;28;20031;-72
2022/10/11 11:28:45;;;;;;;25.48;2.58;;;;;;;;;;4965609;28;20036;-72
2022/10/11 11:31:21;;;;;;;9.65;2.17;;;;;;;;;;4968583;28;20141;-73
2022/10/11 11:33:53;;;;;;;18.15;2.60;;;;;;;;;;4967830;28;20038;-72
2022/10/11 11:36:42;;;;;;;16.73;2.65;;;;;;;;;;4967766;28;20033;-74
2022/10/11 11:39:20;;;;;;;10.77;2.40;;;;;;;;;;4958182;28;20057;-72
2022/10/11 11:41:49;;;;;;;10.50;2.33;;;;;;;;;;4979427;28;20027;-72
2022/10/11 11:44:20;;;;;;;16.58;3.03;;;;;;;;;;4970922;28;20035;-73
2022/10/11 11:46:54;;;;;;;12.63;2.63;;;;;;;;;;4966177;28;20049;-72
2022/10/11 11:49:28;;;;;;;12.20;3.10;;;;;;;;;;4964764;28;20069;-72
2022/10/11 11:51:55;;;;;;;12.98;2.08;;;;;;;;;;4972584;28;20138;-73
2022/10/11 11:54:27;;;;;;;16.42;2.10;;;;;;;;;;4965848;28;20042;-73
2022/10/11 11:57:12;;;;;;;9.68;2.17;;;;;;;;;;4966782;28;20033;-73
2022/10/11 11:59:47;;;;;;;13.10;2.50;;;;;;;;;;4958427;28;20027;-72
2022/10/11 12:02:37;;;;;;;12.95;3.10;;;;;;;;;;4964035;28;20055;-73
2022/10/11 12:05:05;;;;;;;14.07;2.85;;;;;;;;;;4966792;28;20154;-73
2022/10/11 12:07:31;;;;;;;11.25;2.55;;;;;;;;;;4972623;28;20031;-72
2022/10/11 12:10:16;;;;;;;13.70;2.55;;;;;;;;;;4984247;28;20054;-72
2022/10/11 12:12:42;;;;;;;21.80;2.95;;;;;;;;;;4965189;28;20058;-73
2022/10/11 12:15:08;;;;;;;12.07;2.55;;;;;;;;;;4968677;28;20018;-73
2022/10/11 12:17:58;;;;;;;16.23;3.00;;;;;;;;;;4968251;28;20444;-73
2022/10/11 12:20:26;;;;;;;17.60;2.92;;;;;;;;;;4966102;28;20109;-72
2022/10/11 12:22:59;;;;;;;16.48;2.90;;;;;;;;;;4965151;28;20038;-72
2022/10/11 12:25:28;;;;;;;18.52;3.20;;;;;;;;;;4964731;28;20120;-72
2022/10/11 12:27:56;;;;;;;20.20;3.33;;;;;;;;;;4965444;28;20026;-75
2022/10/11 12:30:40;;;;;;;20.30;3.08;;;;;;;;;;4968002;28;20058;-73
2022/10/11 12:33:12;;;;;;;16.95;2.40;;;;;;;;;;4966495;28;20028;-74
2022/10/11 12:35:41;;;;;;;19.20;2.65;;;;;;;;;;4961874;28;20105;-77
2022/10/11 12:38:13;;;;;;;16.42;2.70;;;;;;;;;;4965721;28;20507;-73
2022/10/11 12:40:45;;;;;;;15.93;3.28;;;;;;;;;;4961394;28;20035;-73
2022/10/11 12:43:14;;;;;;;12.30;2.53;;;;;;;;;;4963754;28;20062;-73
2022/10/11 12:45:46;;;;;;;13.75;2.90;;;;;;;;;;4964843;28;20046;-73
2022/10/11 12:48:15;;;;;;;15.60;3.22;;;;;;;;;;4963473;28;20123;-73
2022/10/11 12:50:59;;;;;;;15.18;2.83;;;;;;;;;;4965601;28;20061;-73
2022/10/11 12:53:38;;;;;;;18.52;2.80;;;;;;;;;;4958944;28;20027;-73
2022/10/11 12:56:11;;;;;;;15.32;3.08;;;;;;;;;;4970052;28;20112;-73
2022/10/11 12:58:40;;;;;;;17.50;3.20;;;;;;;;;;4967671;28;20456;-73
2022/10/11 13:01:06;;;;;;;16.80;2.78;;;;;;;;;;4985958;28;20090;-73
2022/10/11 13:03:44;;;;;;;17.50;2.83;;;;;;;;;;4970569;28;20042;-73
2022/10/11 13:06:13;;;;;;;13.30;2.90;;;;;;;;;;4988668;28;20026;-73
2022/10/11 13:08:42;;;;;;;19.38;3.33;;;;;;;;;;4982461;28;20046;-73
2022/10/11 13:11:18;;;;;;;13.35;2.85;;;;;;;;;;4980352;28;20102;-73
2022/10/11 13:13:49;;;;;;;16.75;2.53;;;;;;;;;;4974384;28;20519;-75
2022/10/11 13:16:16;;;;;;;18.52;3.05;;;;;;;;;;4993546;28;20023;-75
2022/10/11 13:18:46;;;;;;;11.00;2.40;;;;;;;;;;4983413;28;20037;-75
2022/10/11 13:21:24;;;;;;;14.52;3.00;;;;;;;;;;4979204;28;20034;-74
2022/10/11 13:23:53;;;;;;;15.02;3.08;;;;;;;;;;4973600;28;20043;-74
2022/10/11 13:26:20;;;;;;;12.18;2.63;;;;;;;;;;4974453;28;20114;-74
2022/10/11 13:28:47;;;;;;;11.75;3.05;;;;;;;;;;4972404;28;20052;-74
2022/10/11 13:31:13;;;;;;;16.65;3.22;;;;;;;;;;4970370;28;20039;-74
2022/10/11 13:33:40;;;;;;;19.65;3.08;;;;;;;;;;4983910;28;20045;-74
2022/10/11 13:36:10;;;;;;;16.20;3.15;;;;;;;;;;4976589;28;20073;-74
2022/10/11 13:38:36;;;;;;;15.23;2.97;;;;;;;;;;4968617;28;20042;-74
2022/10/11 13:41:03;;;;;;;17.92;3.10;;;;;;;;;;4965738;28;20047;-74
2022/10/11 13:43:30;;;;;;;16.55;2.78;;;;;;;;;;4966880;28;20027;-74
2022/10/11 13:45:58;;;;;;;17.13;4.07;;;;;;;;;;4966912;28;20030;-73
2022/10/11 13:48:24;;;;;;;12.32;2.63;;;;;;;;;;4969202;28;21074;-73
2022/10/11 13:51:17;;;;;;;20.70;3.22;;;;;;;;;;4964183;28;20018;-74
2022/10/11 13:53:57;;;;;;;25.00;5.25;;;;;;;;;;4964680;28;20061;-73
2022/10/11 13:56:23;;;;;;;12.90;3.25;;;;;;;;;;4961806;28;20023;-73
2022/10/11 13:58:51;;;;;;;17.00;2.83;;;;;;;;;;4970080;28;20031;-72
2022/10/11 14:01:25;;;;;;;15.80;2.90;;;;;;;;;;4968332;28;20046;-74
2022/10/11 14:03:58;;;;;;;19.75;3.70;;;;;;;;;;4965301;28;20110;-75
2022/10/11 14:06:37;;;;;;;16.00;2.75;;;;;;;;;;4966628;28;20039;-74
2022/10/11 14:09:03;;;;;;;15.55;2.97;;;;;;;;;;4968667;28;20496;-74
2022/10/11 14:11:36;;;;;;;22.85;2.80;;;;;;;;;;4968598;28;20026;-74
2022/10/11 14:14:21;;;;;;;15.60;2.80;;;;;;;;;;4968554;28;20119;-75
2022/10/11 14:16:55;;;;;;;18.98;3.58;;;;;;;;;;4966647;28;20561;-74
2022/10/11 14:19:22;;;;;;;17.35;2.60;;;;;;;;;;4962524;28;20038;-74
2022/10/11 14:21:52;;;;;;;17.60;2.78;;;;;;;;;;4979987;28;20037;-73
2022/10/11 14:24:19;;;;;;;17.23;2.85;;;;;;;;;;4965168;28;20056;-73
2022/10/11 14:26:46;;;;;;;12.32;3.35;;;;;;;;;;4963569;28;20392;-73
2022/10/11 14:29:15;;;;;;;13.60;2.55;;;;;;;;;;4964397;28;20074;-73
2022/10/11 14:31:41;;;;;;;17.98;3.45;;;;;;;;;;4969269;28;20050;-73
2022/10/11 14:34:07;;;;;;;18.50;2.95;;;;;;;;;;4965662;28;20429;-73
2022/10/11 14:36:34;;;;;;;14.82;2.65;;;;;;;;;;4969349;28;20031;-73
2022/10/11 14:39:00;;;;;;;16.80;3.00;;;;;;;;;;4967551;28;20117;-73